Time;durP1;ratioP1;P1;durP2;ratioP2;P2;SDS_P1;SDS_P2;PMS_P1;PMS_P2;Temp;Humidity;BMP_temperature;BMP_pressure;BME280_temperature;BME280_humidity;BME280_pressure;Samples;Min_cycle;Max_cycle;Signal;HPM_P1;HPM_P2
2021/04/22 00:01:57;;;;;;;4.30;1.50;;;6.30;99.90;;;;;;5094863;28;20294;-59
2021/04/22 00:04:24;;;;;;;5.33;1.47;;;6.20;99.90;;;;;;5094607;28;20211;-60
2021/04/22 00:06:52;;;;;;;6.37;1.87;;;6.30;99.90;;;;;;5094622;28;20196;-59
2021/04/22 00:09:19;;;;;;;5.70;1.70;;;6.30;99.90;;;;;;5094692;28;20254;-60
2021/04/22 00:11:47;;;;;;;8.07;2.00;;;6.30;99.90;;;;;;5094501;28;20294;-59
2021/04/22 00:14:15;;;;;;;7.83;2.00;;;6.30;99.90;;;;;;5094272;28;20326;-58
2021/04/22 00:16:43;;;;;;;5.87;1.60;;;6.30;99.90;;;;;;5094261;28;20207;-59
2021/04/22 00:19:10;;;;;;;4.87;1.97;;;6.30;99.90;;;;;;5093911;28;20210;-59
2021/04/22 00:21:38;;;;;;;7.30;1.67;;;6.20;99.90;;;;;;5094411;28;20288;-58
2021/04/22 00:24:05;;;;;;;5.07;2.00;;;6.20;99.90;;;;;;5094428;28;20302;-58
2021/04/22 00:26:32;;;;;;;11.37;2.00;;;6.20;99.90;;;;;;5094159;28;20280;-59
2021/04/22 00:29:00;;;;;;;6.60;1.90;;;6.20;99.90;;;;;;5094365;28;20256;-58
2021/04/22 00:31:27;;;;;;;7.27;2.10;;;6.20;99.90;;;;;;5094046;28;20496;-59
2021/04/22 00:33:54;;;;;;;6.23;1.80;;;6.10;99.90;;;;;;5094165;28;20199;-59
2021/04/22 00:36:21;;;;;;;5.27;1.60;;;6.10;99.90;;;;;;5094034;28;20293;-58
2021/04/22 00:38:47;;;;;;;5.60;1.97;;;6.00;99.90;;;;;;5094133;28;20202;-59
2021/04/22 00:41:16;;;;;;;5.10;1.93;;;6.00;99.90;;;;;;5093727;28;20210;-59
2021/04/22 00:43:43;;;;;;;5.67;2.00;;;5.90;99.90;;;;;;5094007;28;20302;-59
2021/04/22 00:46:10;;;;;;;6.80;2.00;;;5.90;99.90;;;;;;5093682;28;20285;-60
2021/04/22 00:48:37;;;;;;;6.83;1.87;;;5.90;99.90;;;;;;5093215;28;20226;-59
2021/04/22 00:51:05;;;;;;;7.67;1.83;;;5.80;99.90;;;;;;5093465;28;20206;-59
2021/04/22 00:53:32;;;;;;;9.27;1.87;;;5.80;99.90;;;;;;5093298;28;20298;-59
2021/04/22 00:55:59;;;;;;;5.37;2.00;;;5.70;99.90;;;;;;5093088;28;20241;-59
2021/04/22 00:58:26;;;;;;;8.57;2.10;;;5.60;99.90;;;;;;5093355;28;20662;-59
2021/04/22 01:00:55;;;;;;;6.60;1.87;;;5.70;99.90;;;;;;5093697;28;20676;-61
2021/04/22 01:03:23;;;;;;;8.63;1.80;;;5.70;99.90;;;;;;5093424;28;20292;-59
2021/04/22 01:05:53;;;;;;;6.57;1.67;;;5.70;99.90;;;;;;5093410;28;20198;-58
2021/04/22 01:08:20;;;;;;;11.57;2.60;;;5.60;99.90;;;;;;5093243;28;20220;-59
2021/04/22 01:10:46;;;;;;;6.70;2.00;;;5.60;99.90;;;;;;5093119;28;20296;-60
2021/04/22 01:13:14;;;;;;;6.13;2.00;;;5.50;99.90;;;;;;5092317;28;20236;-58
2021/04/22 01:15:41;;;;;;;7.73;2.20;;;5.50;99.90;;;;;;5093163;28;20293;-59
2021/04/22 01:18:09;;;;;;;7.93;1.90;;;5.60;99.90;;;;;;5093223;28;20202;-59
2021/04/22 01:20:39;;;;;;;7.27;2.63;;;5.50;99.90;;;;;;5093303;28;20197;-57
2021/04/22 01:23:09;;;;;;;5.87;1.83;;;5.50;99.90;;;;;;5093462;28;20202;-58
2021/04/22 01:25:38;;;;;;;8.10;2.07;;;5.40;99.90;;;;;;5093065;28;20296;-60
2021/04/22 01:28:07;;;;;;;11.73;2.57;;;5.50;99.90;;;;;;5092912;28;20219;-61
2021/04/22 01:30:38;;;;;;;6.60;2.00;;;5.40;99.90;;;;;;5092468;28;20216;-60
2021/04/22 01:33:06;;;;;;;8.00;2.30;;;5.30;99.90;;;;;;5092802;28;20726;-62
2021/04/22 01:35:36;;;;;;;9.93;2.43;;;5.30;99.90;;;;;;5092835;28;20202;-61
2021/04/22 01:38:05;;;;;;;10.30;2.47;;;5.30;99.90;;;;;;5093084;28;20199;-61
2021/04/22 01:40:33;;;;;;;9.83;2.37;;;5.20;99.90;;;;;;5092537;28;20629;-59
2021/04/22 01:43:01;;;;;;;8.30;2.10;;;5.20;99.90;;;;;;5093313;28;20212;-60
2021/04/22 01:45:28;;;;;;;10.33;2.40;;;5.10;99.90;;;;;;5092573;28;20211;-60
2021/04/22 01:47:55;;;;;;;7.87;2.20;;;5.30;99.90;;;;;;5092827;28;20214;-60
2021/04/22 01:50:25;;;;;;;5.57;2.17;;;5.20;99.90;;;;;;5093160;28;20282;-60
2021/04/22 01:52:53;;;;;;;7.70;2.10;;;5.20;99.90;;;;;;5092945;28;20292;-60
2021/04/22 01:55:22;;;;;;;9.00;2.23;;;5.20;99.90;;;;;;5092659;28;20221;-60
2021/04/22 01:57:50;;;;;;;12.63;2.30;;;5.10;99.90;;;;;;5092934;28;20285;-60
2021/04/22 02:00:20;;;;;;;6.90;2.53;;;5.20;99.90;;;;;;5072674;28;20298;-60
2021/04/22 02:02:47;;;;;;;11.13;2.40;;;5.20;99.90;;;;;;5072836;28;20292;-60
2021/04/22 02:05:14;;;;;;;6.27;2.30;;;5.10;99.90;;;;;;5072485;28;20203;-60
2021/04/22 02:07:41;;;;;;;6.90;2.27;;;5.00;99.90;;;;;;5072531;28;20256;-60
2021/04/22 02:10:09;;;;;;;7.80;1.97;;;5.00;99.90;;;;;;5072078;28;20305;-60
2021/04/22 02:12:37;;;;;;;10.80;2.77;;;5.00;99.90;;;;;;5072553;28;20724;-59
2021/04/22 02:15:07;;;;;;;10.97;2.53;;;5.00;99.90;;;;;;5072829;28;20193;-59
2021/04/22 02:17:34;;;;;;;6.30;2.37;;;4.90;99.90;;;;;;5072683;28;20602;-60
2021/04/22 02:20:02;;;;;;;7.63;2.50;;;4.80;99.90;;;;;;5072422;28;20219;-60
2021/04/22 02:22:28;;;;;;;7.37;2.83;;;4.70;99.90;;;;;;5072503;28;20202;-60
2021/04/22 02:24:55;;;;;;;9.77;2.70;;;4.70;99.90;;;;;;5072358;28;20228;-60
2021/04/22 02:27:22;;;;;;;8.67;2.60;;;4.70;99.90;;;;;;5072458;28;20230;-59
2021/04/22 02:29:49;;;;;;;7.10;2.13;;;4.80;99.90;;;;;;5072489;28;20297;-59
2021/04/22 02:32:17;;;;;;;11.83;2.70;;;4.70;99.90;;;;;;5072377;28;20301;-60
2021/04/22 02:34:43;;;;;;;12.57;2.80;;;4.70;99.90;;;;;;5072206;28;20234;-58
2021/04/22 02:37:10;;;;;;;7.90;2.67;;;4.70;99.90;;;;;;5071891;28;20286;-60
2021/04/22 02:39:37;;;;;;;10.03;3.17;;;4.60;99.90;;;;;;5072011;28;20202;-58
2021/04/22 02:42:05;;;;;;;8.17;2.87;;;4.60;99.90;;;;;;5073821;28;20289;-59
2021/04/22 02:44:39;;;;;;;8.97;2.53;;;4.60;99.90;;;;;;5076124;28;20245;-61
2021/04/22 02:47:06;;;;;;;10.37;2.60;;;4.60;99.90;;;;;;5076135;28;20289;-60
2021/04/22 02:49:34;;;;;;;9.67;2.90;;;4.60;99.90;;;;;;5076074;28;20267;-61
2021/04/22 02:52:01;;;;;;;11.23;2.77;;;4.50;99.90;;;;;;5075613;28;20710;-60
2021/04/22 02:54:28;;;;;;;11.47;3.10;;;4.50;99.90;;;;;;5075930;28;20229;-60
2021/04/22 02:56:54;;;;;;;9.73;3.40;;;4.60;99.90;;;;;;5075921;28;20246;-60
2021/04/22 02:59:22;;;;;;;9.53;2.87;;;4.60;99.90;;;;;;5088618;28;20279;-59
2021/04/22 03:01:49;;;;;;;12.40;3.57;;;4.40;99.90;;;;;;5096111;28;20236;-59
2021/04/22 03:04:15;;;;;;;8.67;3.10;;;4.50;99.90;;;;;;5095984;28;20767;-61
2021/04/22 03:06:43;;;;;;;10.07;3.33;;;4.40;99.90;;;;;;5095898;28;20261;-59
2021/04/22 03:09:10;;;;;;;11.20;3.33;;;4.50;99.90;;;;;;5095803;28;20220;-60
2021/04/22 03:11:37;;;;;;;10.50;3.33;;;4.40;99.90;;;;;;5095926;28;20200;-60
2021/04/22 03:14:04;;;;;;;7.20;3.27;;;4.40;99.90;;;;;;5095484;28;20323;-60
2021/04/22 03:16:31;;;;;;;8.97;2.97;;;4.30;99.90;;;;;;5095557;28;20289;-60
2021/04/22 03:18:58;;;;;;;8.33;2.57;;;4.40;99.90;;;;;;5095711;28;20210;-60
2021/04/22 03:21:25;;;;;;;8.43;3.00;;;4.40;99.90;;;;;;5095632;28;20202;-61
2021/04/22 03:23:53;;;;;;;11.80;3.23;;;4.30;99.90;;;;;;5095737;28;20207;-59
2021/04/22 03:26:20;;;;;;;11.13;3.27;;;4.30;99.90;;;;;;5095611;28;20201;-60
2021/04/22 03:28:47;;;;;;;10.17;3.57;;;4.30;99.90;;;;;;5095549;28;20224;-61
2021/04/22 03:31:15;;;;;;;8.63;3.00;;;4.30;99.90;;;;;;5095479;28;20202;-60
2021/04/22 03:33:41;;;;;;;7.83;3.00;;;4.20;99.90;;;;;;5095316;28;20196;-59
2021/04/22 03:36:09;;;;;;;10.83;3.30;;;4.00;99.90;;;;;;5095206;28;20204;-59
2021/04/22 03:38:35;;;;;;;13.07;3.50;;;4.00;99.90;;;;;;5095128;28;20287;-60
2021/04/22 03:41:03;;;;;;;13.10;2.93;;;3.90;99.90;;;;;;5095344;28;20203;-59
2021/04/22 03:43:30;;;;;;;9.30;3.10;;;4.00;99.90;;;;;;5095310;28;20202;-59
2021/04/22 03:45:57;;;;;;;8.57;4.00;;;4.10;99.90;;;;;;5095440;28;20291;-60
2021/04/22 03:48:24;;;;;;;10.23;4.00;;;4.20;99.90;;;;;;5095161;28;20329;-59
2021/04/22 03:50:51;;;;;;;15.83;3.87;;;4.20;99.90;;;;;;5094707;28;20291;-59
2021/04/22 03:53:17;;;;;;;12.93;3.30;;;4.20;99.90;;;;;;5094016;28;20300;-60
2021/04/22 03:55:44;;;;;;;11.70;3.07;;;4.10;99.90;;;;;;5095015;28;20585;-59
2021/04/22 03:58:12;;;;;;;7.77;2.90;;;4.10;99.90;;;;;;5095035;28;20732;-60
2021/04/22 04:00:39;;;;;;;11.70;3.30;;;4.10;99.90;;;;;;5094941;28;20197;-59
2021/04/22 04:03:06;;;;;;;10.17;3.20;;;4.10;99.90;;;;;;5094726;28;20290;-60
2021/04/22 04:05:33;;;;;;;11.03;3.70;;;4.00;99.90;;;;;;5094256;28;20204;-59
2021/04/22 04:08:00;;;;;;;9.50;3.13;;;4.00;99.90;;;;;;5094200;28;20220;-59
2021/04/22 04:10:27;;;;;;;10.33;3.33;;;4.00;99.90;;;;;;5094554;28;20211;-59
2021/04/22 04:12:54;;;;;;;10.00;4.00;;;4.00;99.90;;;;;;5094527;28;20588;-59
2021/04/22 04:15:21;;;;;;;11.20;4.43;;;4.00;99.90;;;;;;5094599;28;20195;-59
2021/04/22 04:17:48;;;;;;;15.43;4.60;;;4.00;99.90;;;;;;5094391;28;20231;-60
2021/04/22 04:20:16;;;;;;;8.90;4.33;;;4.00;99.90;;;;;;5094203;28;20235;-60
2021/04/22 04:22:47;;;;;;;13.97;3.77;;;4.00;99.90;;;;;;5094298;28;20205;-59
2021/04/22 04:25:14;;;;;;;10.43;4.13;;;4.00;99.90;;;;;;5094624;28;20200;-60
2021/04/22 04:27:41;;;;;;;10.73;3.50;;;4.00;99.90;;;;;;5094383;28;20228;-61
2021/04/22 04:30:12;;;;;;;13.07;3.70;;;4.00;99.90;;;;;;5094299;28;20236;-59
2021/04/22 04:32:39;;;;;;;11.90;4.40;;;4.10;99.90;;;;;;5092945;28;20701;-59
2021/04/22 04:35:08;;;;;;;8.53;3.60;;;4.10;99.90;;;;;;5093715;28;20262;-60
2021/04/22 04:37:35;;;;;;;11.97;3.80;;;4.10;99.90;;;;;;5090645;28;20636;-59
2021/04/22 04:40:03;;;;;;;12.50;4.20;;;4.10;99.90;;;;;;5094000;28;20205;-60
2021/04/22 04:42:30;;;;;;;14.07;3.97;;;4.20;99.90;;;;;;5093786;28;20769;-59
2021/04/22 04:44:56;;;;;;;9.17;3.47;;;4.20;99.90;;;;;;5093706;28;20747;-59
2021/04/22 04:47:23;;;;;;;9.13;3.80;;;4.30;99.90;;;;;;5093931;28;20233;-58
2021/04/22 04:49:51;;;;;;;10.17;4.23;;;4.40;99.90;;;;;;5093646;28;20220;-59
2021/04/22 04:52:18;;;;;;;7.93;3.10;;;4.50;99.90;;;;;;5093276;28;20200;-59
2021/04/22 04:54:45;;;;;;;12.13;4.53;;;4.60;99.90;;;;;;5093221;28;20295;-59
2021/04/22 04:57:12;;;;;;;9.97;3.93;;;4.70;99.90;;;;;;5093437;28;20617;-60
2021/04/22 04:59:38;;;;;;;15.97;4.20;;;4.80;99.90;;;;;;5093699;28;20742;-60
2021/04/22 05:02:05;;;;;;;8.93;4.03;;;4.90;99.90;;;;;;5093649;28;20564;-59
2021/04/22 05:04:33;;;;;;;9.10;3.50;;;5.00;99.90;;;;;;5093025;28;20230;-60
2021/04/22 05:07:00;;;;;;;12.30;4.30;;;5.00;99.90;;;;;;5092947;28;20605;-59
2021/04/22 05:09:27;;;;;;;13.13;4.07;;;5.10;99.90;;;;;;5093477;28;20257;-59
2021/04/22 05:11:54;;;;;;;8.87;3.53;;;5.20;99.90;;;;;;5093453;28;20279;-58
2021/04/22 05:14:21;;;;;;;10.13;4.00;;;5.30;99.90;;;;;;5092800;28;20245;-59
2021/04/22 05:16:49;;;;;;;8.23;3.90;;;5.40;99.90;;;;;;5092151;28;20708;-59
2021/04/22 05:19:16;;;;;;;9.00;3.93;;;5.50;99.90;;;;;;5092778;28;20224;-61
2021/04/22 05:21:43;;;;;;;12.00;4.37;;;5.50;99.90;;;;;;5092729;28;20201;-60
2021/04/22 05:24:11;;;;;;;10.33;4.63;;;5.50;99.90;;;;;;5092900;28;20220;-61
2021/04/22 05:26:38;;;;;;;11.57;4.00;;;5.60;99.90;;;;;;5093158;28;20297;-59
2021/04/22 05:29:05;;;;;;;11.13;4.27;;;5.80;99.90;;;;;;5092668;28;20221;-59
2021/04/22 05:31:32;;;;;;;9.90;4.10;;;5.80;99.90;;;;;;5092960;28;20297;-60
2021/04/22 05:33:59;;;;;;;12.93;3.87;;;5.90;99.90;;;;;;5092663;28;20203;-60
2021/04/22 05:36:26;;;;;;;9.00;4.10;;;6.00;99.90;;;;;;5092593;28;20207;-60
2021/04/22 05:38:53;;;;;;;10.87;3.43;;;6.20;99.90;;;;;;5092957;28;20199;-60
2021/04/22 05:41:21;;;;;;;10.07;4.00;;;6.30;99.90;;;;;;5093074;28;20297;-59
2021/04/22 05:43:48;;;;;;;8.63;3.97;;;6.40;99.90;;;;;;5093061;28;20213;-61
2021/04/22 05:46:14;;;;;;;15.13;3.97;;;6.40;99.90;;;;;;5093107;28;20241;-60
2021/04/22 05:48:42;;;;;;;11.30;4.57;;;6.50;99.90;;;;;;5092351;28;20258;-61
2021/04/22 05:51:09;;;;;;;12.47;4.33;;;6.50;99.90;;;;;;5092093;28;20202;-59
2021/04/22 05:53:36;;;;;;;9.93;3.67;;;6.50;99.90;;;;;;5092723;28;20233;-59
2021/04/22 05:56:03;;;;;;;13.00;4.30;;;6.60;99.90;;;;;;5092812;28;20207;-61
2021/04/22 05:58:31;;;;;;;11.87;4.10;;;6.60;99.90;;;;;;5092391;28;20284;-60
2021/04/22 06:00:58;;;;;;;10.73;3.93;;;6.70;99.90;;;;;;5092599;28;20725;-59
2021/04/22 06:03:25;;;;;;;12.60;4.83;;;6.80;99.90;;;;;;5092785;28;20211;-59
2021/04/22 06:05:52;;;;;;;9.67;3.70;;;6.90;99.90;;;;;;5092425;28;20257;-59
2021/04/22 06:08:18;;;;;;;9.37;3.23;;;7.20;99.90;;;;;;5092593;28;20229;-60
2021/04/22 06:10:46;;;;;;;6.70;3.00;;;7.20;99.90;;;;;;5092270;28;20670;-61
2021/04/22 06:13:13;;;;;;;8.70;3.30;;;7.30;99.90;;;;;;5092678;28;20330;-60
2021/04/22 06:15:41;;;;;;;8.47;3.47;;;7.40;99.90;;;;;;5091840;28;20245;-61
2021/04/22 06:18:09;;;;;;;13.30;4.27;;;7.60;99.90;;;;;;5083820;28;20200;-59
2021/04/22 06:20:36;;;;;;;11.90;3.83;;;7.70;99.90;;;;;;5086191;28;20247;-61
2021/04/22 06:23:24;;;;;;;9.80;4.03;;;7.80;99.90;;;;;;5089692;28;20246;-61
2021/04/22 06:25:51;;;;;;;8.77;3.33;;;8.00;99.90;;;;;;5088936;28;20204;-59
2021/04/22 06:28:18;;;;;;;11.03;3.90;;;8.20;99.90;;;;;;5082517;28;20307;-60
2021/04/22 06:30:46;;;;;;;11.37;3.23;;;8.40;99.90;;;;;;5083028;28;20247;-58
2021/04/22 06:33:13;;;;;;;10.33;3.57;;;8.50;99.90;;;;;;5072412;28;20201;-57
2021/04/22 06:35:40;;;;;;;7.10;3.07;;;8.50;99.90;;;;;;5071863;28;20655;-58
2021/04/22 06:38:07;;;;;;;7.40;3.50;;;8.60;99.90;;;;;;5071859;28;20204;-58
2021/04/22 06:40:34;;;;;;;7.03;3.00;;;8.60;99.90;;;;;;5072647;28;20211;-59
2021/04/22 06:43:08;;;;;;;8.63;3.13;;;8.70;99.90;;;;;;5081712;28;20196;-58
2021/04/22 06:45:37;;;;;;;6.43;3.10;;;8.60;99.90;;;;;;5093001;28;20648;-59
2021/04/22 06:48:06;;;;;;;7.73;3.37;;;8.60;99.90;;;;;;5092735;28;20207;-57
2021/04/22 06:50:33;;;;;;;11.17;3.60;;;8.60;99.90;;;;;;5092062;28;20204;-60
2021/04/22 06:53:00;;;;;;;13.43;3.30;;;8.70;99.90;;;;;;5092408;28;20736;-56
2021/04/22 06:55:27;;;;;;;8.97;3.13;;;8.70;99.90;;;;;;5091912;28;20294;-56
2021/04/22 06:57:58;;;;;;;7.07;3.43;;;8.80;99.90;;;;;;5092578;28;20206;-55
2021/04/22 07:00:26;;;;;;;8.83;3.00;;;8.90;99.90;;;;;;5089336;28;20235;-51
2021/04/22 07:02:54;;;;;;;8.17;3.10;;;9.10;99.90;;;;;;5091558;28;20195;-55
2021/04/22 07:05:22;;;;;;;10.73;3.23;;;9.30;99.90;;;;;;5092494;28;20196;-54
2021/04/22 07:07:49;;;;;;;10.63;3.20;;;9.40;99.90;;;;;;5091925;28;20285;-54
2021/04/22 07:10:17;;;;;;;10.50;3.83;;;9.40;99.90;;;;;;5091986;28;20250;-60
2021/04/22 07:12:44;;;;;;;7.80;3.33;;;9.40;99.90;;;;;;5091810;28;20238;-60
2021/04/22 07:15:12;;;;;;;13.53;3.23;;;9.10;99.90;;;;;;5091698;28;20184;-60
2021/04/22 07:17:39;;;;;;;7.63;2.93;;;8.90;99.90;;;;;;5091312;28;20231;-60
2021/04/22 07:20:08;;;;;;;6.90;2.20;;;8.90;99.90;;;;;;5091444;28;20196;-62
2021/04/22 07:22:51;;;;;;;6.03;2.20;;;8.80;99.90;;;;;;5091889;28;20184;-60
2021/04/22 07:25:19;;;;;;;8.80;2.43;;;8.60;99.90;;;;;;5092135;28;20242;-61
2021/04/22 07:27:45;;;;;;;7.93;2.30;;;8.50;99.90;;;;;;5105849;28;20719;-60
2021/04/22 07:30:13;;;;;;;6.63;2.27;;;8.50;99.90;;;;;;5112069;28;20245;-61
2021/04/22 07:32:40;;;;;;;11.20;2.97;;;8.50;99.90;;;;;;5112414;28;20517;-60
2021/04/22 07:35:09;;;;;;;5.97;2.00;;;8.50;99.90;;;;;;5106191;28;20695;-61
2021/04/22 07:37:36;;;;;;;7.93;2.23;;;8.30;99.90;;;;;;5091809;28;20269;-62
2021/04/22 07:40:05;;;;;;;10.30;2.40;;;8.30;99.90;;;;;;5091980;28;20196;-61
2021/04/22 07:42:32;;;;;;;8.93;2.33;;;8.60;99.90;;;;;;5091488;28;20287;-59
2021/04/22 07:44:59;;;;;;;7.13;2.10;;;8.80;99.90;;;;;;5091499;28;20208;-61
2021/04/22 07:47:26;;;;;;;5.10;2.17;;;8.90;99.90;;;;;;5091435;28;20254;-60
2021/04/22 07:49:54;;;;;;;6.37;2.00;;;8.90;99.90;;;;;;5091394;28;20227;-58
2021/04/22 07:52:21;;;;;;;5.60;2.17;;;8.80;99.90;;;;;;5091420;28;20287;-59
2021/04/22 07:54:48;;;;;;;5.77;2.30;;;8.90;99.90;;;;;;5091784;28;20202;-59
2021/04/22 07:57:16;;;;;;;9.13;2.37;;;8.80;99.90;;;;;;5090954;28;20231;-60
2021/04/22 07:59:43;;;;;;;8.60;2.17;;;8.90;99.90;;;;;;5091711;28;20290;-62
2021/04/22 08:02:30;;;;;;;7.80;2.70;;;9.00;99.90;;;;;;5091252;28;20195;-61
2021/04/22 08:04:57;;;;;;;7.50;2.90;;;9.10;99.90;;;;;;5091053;28;20204;-60
2021/04/22 08:07:24;;;;;;;7.60;2.37;;;9.20;99.90;;;;;;5090834;28;20395;-60
2021/04/22 08:09:51;;;;;;;7.30;2.63;;;9.20;99.90;;;;;;5091086;28;20208;-59
2021/04/22 08:12:18;;;;;;;8.70;2.60;;;9.10;99.90;;;;;;5091004;28;20203;-59
2021/04/22 08:14:45;;;;;;;8.83;2.83;;;9.10;99.90;;;;;;5090742;28;20766;-59
2021/04/22 08:17:12;;;;;;;7.17;2.60;;;9.10;99.90;;;;;;5090986;28;20592;-59
2021/04/22 08:19:39;;;;;;;7.67;2.90;;;9.10;99.90;;;;;;5090844;28;20251;-59
2021/04/22 08:22:06;;;;;;;5.10;2.50;;;9.20;99.90;;;;;;5091172;28;20292;-58
2021/04/22 08:24:33;;;;;;;5.37;2.50;;;9.30;99.90;;;;;;5090913;28;20219;-59
2021/04/22 08:27:00;;;;;;;6.57;2.67;;;9.50;99.90;;;;;;5090971;28;20302;-59
2021/04/22 08:29:28;;;;;;;6.43;2.50;;;9.60;99.90;;;;;;5090680;28;20310;-61
2021/04/22 08:31:55;;;;;;;8.03;2.53;;;9.80;99.90;;;;;;5090409;28;20299;-62
2021/04/22 08:34:25;;;;;;;6.60;2.50;;;10.10;99.90;;;;;;5090484;28;20230;-62
2021/04/22 08:36:52;;;;;;;7.37;2.70;;;10.10;99.90;;;;;;5090592;28;20200;-62
2021/04/22 08:39:18;;;;;;;8.40;3.03;;;9.90;99.90;;;;;;5089945;28;20280;-63
2021/04/22 08:41:46;;;;;;;8.27;2.67;;;9.90;99.90;;;;;;5090913;28;20206;-59
2021/04/22 08:44:13;;;;;;;7.40;3.07;;;9.90;99.90;;;;;;5090550;28;20592;-59
2021/04/22 08:46:42;;;;;;;9.40;2.97;;;10.00;99.90;;;;;;5090346;28;20294;-59
2021/04/22 08:49:10;;;;;;;8.20;2.87;;;10.20;99.90;;;;;;5089740;28;20776;-60
2021/04/22 08:51:37;;;;;;;10.00;3.17;;;10.30;99.90;;;;;;5083838;28;20196;-60
2021/04/22 08:54:05;;;;;;;7.23;2.70;;;10.30;99.90;;;;;;5078740;28;20574;-59
2021/04/22 08:56:34;;;;;;;12.00;3.40;;;10.50;99.90;;;;;;5078464;28;20675;-59
2021/04/22 08:59:02;;;;;;;7.43;3.03;;;10.60;99.90;;;;;;5078278;28;20193;-60
2021/04/22 09:01:31;;;;;;;5.57;2.60;;;10.40;99.90;;;;;;5076143;28;20272;-59
2021/04/22 09:04:01;;;;;;;12.90;3.03;;;10.40;99.90;;;;;;5069382;28;20201;-60
2021/04/22 09:06:28;;;;;;;8.03;2.90;;;10.30;99.90;;;;;;5069713;28;20212;-59
2021/04/22 09:08:56;;;;;;;6.17;2.93;;;10.20;99.90;;;;;;5072132;28;21709;-60
2021/04/22 09:11:25;;;;;;;9.70;2.93;;;10.30;99.90;;;;;;5090344;28;20232;-60
2021/04/22 09:13:52;;;;;;;7.70;2.87;;;10.20;99.90;;;;;;5089705;28;20322;-59
2021/04/22 09:16:21;;;;;;;5.43;2.80;;;10.10;99.90;;;;;;5089833;28;20439;-59
2021/04/22 09:18:51;;;;;;;8.20;2.53;;;10.20;99.90;;;;;;5089233;28;20606;-59
2021/04/22 09:21:21;;;;;;;7.70;3.13;;;10.20;99.90;;;;;;5089710;28;20258;-60
2021/04/22 09:23:57;;;;;;;7.63;2.80;;;10.40;99.90;;;;;;5089624;28;20285;-61
2021/04/22 09:26:52;;;;;;;4.73;3.00;;;10.50;99.90;;;;;;5089286;28;20200;-60
2021/04/22 09:29:31;;;;;;;4.47;2.67;;;10.40;99.90;;;;;;5064854;28;20251;-61
2021/04/22 09:32:09;;;;;;;6.87;3.23;;;10.60;99.90;;;;;;5069071;28;20189;-54
2021/04/22 09:34:37;;;;;;;4.60;2.67;;;10.70;99.90;;;;;;5068623;28;20200;-59
2021/04/22 09:37:05;;;;;;;5.03;2.37;;;10.60;99.90;;;;;;5069214;28;20204;-58
2021/04/22 09:39:33;;;;;;;7.47;2.70;;;10.30;99.90;;;;;;5069224;28;20192;-61
2021/04/22 09:42:05;;;;;;;7.00;2.50;;;10.10;99.90;;;;;;5069437;28;20211;-58
2021/04/22 09:44:32;;;;;;;5.33;2.50;;;10.30;99.90;;;;;;5069105;28;20232;-58
2021/04/22 09:47:05;;;;;;;6.77;2.50;;;10.40;99.90;;;;;;5069207;28;20208;-59
2021/04/22 09:49:33;;;;;;;5.10;2.10;;;10.70;99.90;;;;;;5068948;28;20201;-61
2021/04/22 09:52:08;;;;;;;7.57;2.53;;;10.90;99.90;;;;;;5068463;28;20598;-58
2021/04/22 09:54:42;;;;;;;5.67;2.57;;;11.00;99.90;;;;;;5068951;28;20228;-60
2021/04/22 09:57:19;;;;;;;7.20;2.80;;;11.20;99.90;;;;;;5077894;28;20199;-60
2021/04/22 09:59:46;;;;;;;4.20;2.40;;;11.30;99.90;;;;;;5109399;28;20611;-59
2021/04/22 10:02:13;;;;;;;5.17;2.17;;;11.40;99.90;;;;;;5109485;28;20306;-60
2021/04/22 10:04:43;;;;;;;5.63;2.50;;;11.40;99.90;;;;;;5108642;28;20287;-61
2021/04/22 10:07:24;;;;;;;7.47;2.53;;;11.40;99.90;;;;;;5109028;28;20301;-60
2021/04/22 10:09:52;;;;;;;3.77;2.10;;;11.50;99.90;;;;;;5098735;28;20220;-60
2021/04/22 10:12:24;;;;;;;5.40;2.27;;;11.60;99.90;;;;;;5089222;28;20227;-60
2021/04/22 10:14:51;;;;;;;4.97;2.43;;;11.60;99.90;;;;;;5088697;28;20232;-60
2021/04/22 10:17:22;;;;;;;4.77;2.40;;;11.90;99.90;;;;;;5088725;28;20204;-59
2021/04/22 10:19:58;;;;;;;5.70;2.23;;;12.00;99.90;;;;;;5089099;28;20180;-59
2021/04/22 10:22:34;;;;;;;4.67;2.37;;;11.90;99.90;;;;;;5089224;28;20253;-59
2021/04/22 10:25:03;;;;;;;6.67;2.53;;;11.90;99.90;;;;;;5089039;28;20187;-60
2021/04/22 10:27:30;;;;;;;6.07;2.37;;;12.00;99.90;;;;;;5088977;28;20667;-60
2021/04/22 10:29:58;;;;;;;6.00;2.50;;;12.10;99.90;;;;;;5089039;28;20248;-59
2021/04/22 10:32:26;;;;;;;6.57;2.50;;;12.30;99.90;;;;;;5089146;28;20295;-60
2021/04/22 10:34:54;;;;;;;6.63;2.83;;;12.00;99.90;;;;;;5088930;28;20204;-60
2021/04/22 10:37:22;;;;;;;6.57;2.80;;;11.80;99.90;;;;;;5090196;28;20296;-60
2021/04/22 10:39:53;;;;;;;5.43;2.80;;;11.70;99.90;;;;;;5090738;28;20288;-60
2021/04/22 10:42:20;;;;;;;5.33;2.90;;;11.60;99.90;;;;;;5091534;28;20193;-60
2021/04/22 10:44:49;;;;;;;4.83;2.60;;;11.60;99.90;;;;;;5089173;28;20227;-60
2021/04/22 10:47:17;;;;;;;8.07;3.00;;;11.40;99.90;;;;;;5088671;28;20294;-60
2021/04/22 10:49:45;;;;;;;7.20;2.70;;;11.50;99.90;;;;;;5088335;28;20331;-60
2021/04/22 10:52:13;;;;;;;8.03;3.03;;;11.70;99.90;;;;;;5082088;28;20215;-59
2021/04/22 10:54:41;;;;;;;7.20;2.90;;;11.70;99.90;;;;;;5077831;28;20676;-59
2021/04/22 10:57:11;;;;;;;7.67;2.93;;;11.70;99.90;;;;;;5088487;28;20204;-60
2021/04/22 10:59:38;;;;;;;6.40;3.03;;;11.40;99.90;;;;;;5109172;28;20267;-60
2021/04/22 11:02:18;;;;;;;4.47;2.90;;;11.50;99.90;;;;;;5109144;28;20183;-59
2021/04/22 11:04:46;;;;;;;6.33;2.97;;;11.60;99.90;;;;;;5113486;28;20199;-59
2021/04/22 11:07:15;;;;;;;8.87;3.07;;;11.70;99.90;;;;;;5112621;28;20286;-59
2021/04/22 11:09:42;;;;;;;6.57;3.20;;;11.70;99.90;;;;;;5103300;28;20230;-59
2021/04/22 11:12:11;;;;;;;7.43;3.43;;;11.70;99.90;;;;;;5091933;28;20196;-59
2021/04/22 11:14:44;;;;;;;5.43;3.13;;;11.80;99.90;;;;;;5091655;28;20246;-60
2021/04/22 11:17:11;;;;;;;6.73;3.17;;;11.80;99.90;;;;;;5091832;28;20204;-59
2021/04/22 11:19:41;;;;;;;8.07;2.97;;;11.80;99.90;;;;;;5085925;28;20291;-60
2021/04/22 11:22:14;;;;;;;5.97;2.83;;;11.50;99.90;;;;;;5079872;28;20197;-59
2021/04/22 11:24:50;;;;;;;6.93;3.10;;;11.50;99.90;;;;;;5079528;28;20296;-57
2021/04/22 11:27:18;;;;;;;6.53;2.90;;;11.60;99.90;;;;;;5085628;28;20282;-57
2021/04/22 11:29:47;;;;;;;5.47;3.20;;;11.60;99.90;;;;;;5090954;28;20314;-59
2021/04/22 11:32:32;;;;;;;4.23;3.00;;;11.90;99.90;;;;;;5091778;28;20303;-59
2021/04/22 11:35:13;;;;;;;5.07;2.80;;;11.90;99.90;;;;;;5091734;28;20195;-60
2021/04/22 11:37:43;;;;;;;6.43;2.60;;;11.60;99.90;;;;;;5091885;28;20259;-65
2021/04/22 11:40:12;;;;;;;4.40;2.40;;;11.80;99.90;;;;;;5091500;28;20204;-63
2021/04/22 11:42:43;;;;;;;7.20;3.33;;;12.30;99.90;;;;;;5091749;28;20236;-63
2021/04/22 11:45:12;;;;;;;6.67;2.90;;;12.60;99.40;;;;;;5091292;28;20223;-59
2021/04/22 11:47:49;;;;;;;4.10;2.90;;;12.50;99.90;;;;;;5091400;28;20246;-63
2021/04/22 11:50:18;;;;;;;7.00;3.47;;;12.30;99.90;;;;;;5091396;28;20204;-64
2021/04/22 11:52:51;;;;;;;11.77;3.20;;;12.40;99.90;;;;;;5108338;28;20306;-58
2021/04/22 11:55:22;;;;;;;6.30;2.90;;;12.50;99.90;;;;;;5111446;28;20222;-59
2021/04/22 11:57:57;;;;;;;8.47;2.90;;;12.60;99.90;;;;;;5111780;28;20188;-59
2021/04/22 12:00:27;;;;;;;6.37;2.70;;;12.60;99.90;;;;;;5111793;28;20274;-59
2021/04/22 12:02:55;;;;;;;6.13;2.93;;;12.50;99.90;;;;;;5111813;28;20242;-59
2021/04/22 12:05:23;;;;;;;6.60;2.90;;;12.20;99.90;;;;;;5111424;28;20207;-59
2021/04/22 12:07:57;;;;;;;7.07;3.00;;;12.10;99.90;;;;;;5111388;28;20274;-60
2021/04/22 12:10:24;;;;;;;9.13;2.90;;;12.20;99.90;;;;;;5095757;28;20224;-60
2021/04/22 12:13:03;;;;;;;7.27;3.27;;;12.30;99.90;;;;;;5090570;28;20235;-59
2021/04/22 12:15:31;;;;;;;6.17;3.07;;;12.20;99.90;;;;;;5090288;28;20200;-59
2021/04/22 12:17:58;;;;;;;5.93;3.00;;;12.10;99.90;;;;;;5090664;28;20228;-58
2021/04/22 12:20:26;;;;;;;5.07;2.63;;;11.80;99.90;;;;;;5090825;28;20671;-60
2021/04/22 12:22:56;;;;;;;9.00;3.03;;;11.90;99.90;;;;;;5090861;28;20222;-57
2021/04/22 12:25:24;;;;;;;5.50;3.30;;;12.00;99.90;;;;;;5090638;28;20185;-58
2021/04/22 12:27:59;;;;;;;6.07;3.03;;;12.00;99.90;;;;;;5090618;28;20184;-58
2021/04/22 12:30:32;;;;;;;5.60;2.90;;;11.80;99.90;;;;;;5090283;28;20300;-59
2021/04/22 12:33:05;;;;;;;5.63;2.97;;;11.70;99.90;;;;;;5090198;28;20206;-59
2021/04/22 12:35:33;;;;;;;7.20;2.93;;;11.90;99.90;;;;;;5090757;28;20271;-59
2021/04/22 12:38:15;;;;;;;5.60;2.90;;;12.00;99.90;;;;;;5090650;28;20195;-59
2021/04/22 12:40:45;;;;;;;4.53;2.60;;;11.90;99.90;;;;;;5090420;28;20743;-57
2021/04/22 12:43:13;;;;;;;6.10;3.07;;;11.50;99.90;;;;;;5090437;28;20267;-55
2021/04/22 12:45:40;;;;;;;4.73;3.10;;;11.30;99.90;;;;;;5090690;28;20294;-58
2021/04/22 12:48:09;;;;;;;6.90;3.47;;;11.30;99.90;;;;;;5090318;28;20547;-58
2021/04/22 12:50:40;;;;;;;8.87;2.83;;;11.50;99.90;;;;;;5090074;28;20307;-59
2021/04/22 12:53:10;;;;;;;5.27;3.37;;;11.70;99.90;;;;;;5090263;28;20283;-60
2021/04/22 12:55:41;;;;;;;6.50;3.13;;;12.00;99.90;;;;;;5090361;28;20200;-60
2021/04/22 12:58:10;;;;;;;7.27;3.30;;;12.10;99.90;;;;;;5090255;28;20268;-55